Race Coverage Navigation

TS # 37 / Effingham, IL  2019

 


TS STATS
TS Distance 48.94 
Total Distance 2165.5 
Miles To Go 875.61 
TS Climbing 2146 
Total Climbing
TS  Elevation
TS  Net Elevation 3416 
Map Filename Open Map 
Directions Filename  
Latitude 39.12 
Longitude -88.56 
Google Map  TimeStation Map 


TS Arrival Data
Arr Ord  #/Name Arrival DT TS Dst Ascending Avg This TS Avg Overall
 1 377 - Christoph Strasser  06/17/2019 5:44 48.94  18.24  16.27 
 2 279 - Marko Baloh  06/18/2019 1:01 48.94  12.08  14.21 
 3 609 - Jakob Olsen  06/18/2019 7:57 48.94  7.79  13.57 
 4 617 - SOLO.kiwi (Craig Harper)  06/18/2019 21:44 48.94  15.21  12.48 
 5 329 - Peter Oyler  06/18/2019 22:07 48.94  13.35  12.48 
 6 367 - Daniela Genovesi  06/18/2019 23:14 48.94  15.54  12.37 
 7 416 - Leah Goldstein  06/19/2019 0:40 48.94  10.16  12.26 
 8 622 - Thomas Odom-Team Kyle Pease Foundation  06/19/2019 2:51 48.94  12.94  12.12 
 9 623 - Ultra Paka Racing Team (Daniel Polman)  06/19/2019 3:24 48.94  11.52  12.08 
 10 612 - Markus K. Brandl  06/19/2019 9:02 48.94  15.37  11.72 
 11 615 - Philipp Amhof  06/19/2019 10:39 48.94  16.88  11.62 
 12 T411 - team alpha - tischlerei groemmer  06/19/2019 14:47 48.94  27.44  22.69 
 13 611 - Marcelo Soares " MIXIRICA "  06/19/2019 15:10 48.94  9.35  11.35 
 14 T800 - Backstedt Racing Project 14  06/19/2019 15:19 48.94  26.94  22.6 
 15 603 - Alan Bradley  06/19/2019 14:33 48.94  7.79  11.39 
 16 559 - Team Martin RAAM 2019 (Martin Bergmeister)  06/19/2019 17:48 48.94  11.56  11.2 
 17 442 - Joe Barr  06/19/2019 18:06 48.94  10.41  11.19 
 18 510 - John C. Tarlton  06/19/2019 18:28 48.94  8.84  11.16 
 19 411 - Geoff Brunner  06/19/2019 18:36 48.94  15.54  11.16 
 20 T404 - Gentlemen of speed  06/19/2019 20:58 48.94  23.68  21.29 
 21 568 - Alexandra Meixner  06/19/2019 21:28 48.94  15.79  10.97 
 22 T401 - Data Techniques powered by Networks Centre  06/19/2019 21:53 48.94  11.7  21.09 
 23 604 - Chieko Ozawa  06/19/2019 21:56 48.94  13.35  10.94 
 24 529 - Isa Pulver  06/19/2019 23:49 48.94  16.31  10.84 
 25 T805 - Team Oceanside  06/20/2019 1:52 48.94  24.68  20.37 
 26 T807 - Team ZOE International  06/20/2019 2:51 48.94  22.59  20.19 
 27 T407 - Julian Becker   06/20/2019 3:06 48.94  20.97  20.09 
 28 T201 - EAT WELL  06/20/2019 3:14 48.94  21.75  20.01 
 29 610 - Kabir Rachure  06/20/2019 3:27 48.94  14.68  10.66 
 30 T802 - Scorchers  06/20/2019 5:06 48.94  19.71  19.76 
 31 618 - GREGORY ROBINSON  06/20/2019 4:36 48.94  10.3  10.6 
 32 T416 - Team Rotary Raams Polio  06/20/2019 6:37 48.94  20.39  19.48 
 33 T408 - Radeln-fuer-Kinder (Cycling-for-Kids)  06/20/2019 7:58 48.94  19.58  19.22 
 34 T400 - Cantastic4  06/20/2019 9:51 48.94  19.58  18.88 
 35 399 - Valerio Zamboni  06/20/2019 10:08 48.94  7.32  10.33 
 36 T804 - Team FSHD Skyland Trail  06/20/2019 7:17 48.94  21.43  19.38 
 37 T808 - Antonia's Friends 2019  06/20/2019 10:56 48.94  21.13  18.78 
 38 T406 - Operation Walk Midwest  06/20/2019 11:52 48.94  19.45  18.57 
 39 424 - Team i RON man Veterans supporting Veterans  06/20/2019 13:07 48.94  11.34  10.19 
 40 T418 - The Opportunists  06/20/2019 13:29 48.94  19.32  18.35 
 41 161 - Seana Hogan  06/20/2019 14:20 48.94  14.39  10.11 
 42 T410 - Soap-Aid  06/20/2019 17:19 48.94  19.58  17.75 
 43 T412 - Team Aspect  06/20/2019 19:21 48.94  17.58  17.47 
 44 T414 - Brazil Nuts  06/20/2019 20:55 48.94  16.59  17.25 
 45 T202 - Integra Medical - BAA Racing  06/20/2019 21:10 48.94  17.17  17.17 
 46 T803 - Team EndoPark  06/20/2019 21:13 48.94  21.91  17.23 
 47 T405 - High Rollers  06/20/2019 21:18 48.94  23.49  17.18 
 48 T415 - TEAM FIRE VELO 935  06/20/2019 22:35 48.94  19.07  17.03 
 49 T206 - Project Linear Acceleration  06/21/2019 0:43 48.94  16.59  16.71 
 50 T204 - Lucan CRC  06/21/2019 1:26 48.94  22.94  16.61 
 51 T413 - TEAM BRASIL - SKIPPER  06/21/2019 1:36 48.94  15.7  16.63 
 52 T402 - EA/WFP RAAM Team  06/21/2019 2:53 48.94  15.14  16.44 
 53 T403 - EKJ Denmark  06/21/2019 3:25 48.94  17.17  16.38 
 54 T200 - AIR RELAX GoPro TEAM BRASIL  06/21/2019 3:54 48.94  22.94  16.29 
 55 T806 - Team SuperMarrow  06/21/2019 4:03 48.94  17.58  16.35 
 56 T801 - Mind Over Matter  06/21/2019 4:59 48.94  14.98  16.22 
 57 608 - Elin Starup  06/21/2019 6:24 48.94  7.29  9.4 
 58 T417 - Team4RAAM 2019 powered by TGW Living Logistics  06/21/2019 6:39 48.94  16.78  16.02 
 59 T409 - Serpentine Golden Girls  06/21/2019 18:34 48.94  14.39  14.71 
 60 T203 - JPsDuo  06/21/2019 23:01 48.94  15.45  14.25 
 61 T207 - Team Life Time  06/22/2019 1:22 48.94  11.38  14.04 
 62 T205 - Prevent Breast Cancer powered by Endomag  06/22/2019 4:32 48.94  11.75  13.75 
 63 T210 - Bike Wine Team  06/22/2019 4:52 48.94  12.99  13.73